Time;durP1;ratioP1;P1;durP2;ratioP2;P2;SDS_P1;SDS_P2;PMS_P1;PMS_P2;Temp;Humidity;BMP_temperature;BMP_pressure;BME280_temperature;BME280_humidity;BME280_pressure;Samples;Min_cycle;Max_cycle;Signal;HPM_P1;HPM_P2
2021/03/03 00:00:51;;;;;;;20.25;12.48;;;7.70;92.00;;;;;;4882658;29;20188;-88
2021/03/03 00:03:21;;;;;;;18.45;11.50;;;7.70;91.10;;;;;;4879283;29;20200;-88
2021/03/03 00:05:47;;;;;;;19.05;11.77;;;7.60;94.00;;;;;;4882647;29;20221;-89
2021/03/03 00:08:25;;;;;;;17.45;12.93;;;7.70;93.30;;;;;;4883916;29;20181;-88
2021/03/03 00:10:53;;;;;;;24.52;11.93;;;7.70;91.20;;;;;;4900188;29;20233;-88
2021/03/03 00:13:18;;;;;;;19.50;12.27;;;7.70;90.50;;;;;;4881756;29;20169;-88
2021/03/03 00:15:53;;;;;;;16.40;12.20;;;7.70;90.30;;;;;;4882045;29;20426;-87
2021/03/03 00:18:19;;;;;;;13.32;10.75;;;7.60;90.20;;;;;;4876776;29;20481;-87
2021/03/03 00:20:48;;;;;;;15.47;11.57;;;7.60;90.30;;;;;;4881701;29;20638;-87
2021/03/03 00:23:17;;;;;;;19.88;12.05;;;7.60;90.50;;;;;;4884573;29;20433;-87
2021/03/03 00:25:43;;;;;;;14.70;10.98;;;7.60;88.20;;;;;;4898420;29;20264;-88
2021/03/03 00:28:11;;;;;;;19.13;12.33;;;7.70;90.40;;;;;;4881230;29;20702;-88
2021/03/03 00:30:38;;;;;;;16.45;11.27;;;7.60;90.30;;;;;;4896626;29;20177;-89
2021/03/03 00:33:04;;;;;;;18.05;11.27;;;7.60;90.10;;;;;;4880122;29;20264;-88
2021/03/03 00:35:32;;;;;;;15.73;12.90;;;7.50;90.10;;;;;;4879545;29;20671;-87
2021/03/03 00:37:57;;;;;;;15.40;12.18;;;7.60;86.60;;;;;;4881505;29;20437;-87
2021/03/03 00:40:23;;;;;;;15.30;11.10;;;7.60;89.70;;;;;;4898155;29;20664;-88
2021/03/03 00:42:52;;;;;;;16.97;10.50;;;7.50;89.40;;;;;;4883392;29;20206;-88
2021/03/03 00:45:22;;;;;;;16.85;11.48;;;7.50;86.20;;;;;;4900045;29;20493;-87
2021/03/03 00:47:48;;;;;;;16.40;12.07;;;7.60;89.10;;;;;;4884631;29;20193;-87
2021/03/03 00:50:16;;;;;;;17.37;11.90;;;7.50;88.50;;;;;;4904520;29;20433;-87
2021/03/03 00:52:42;;;;;;;16.73;11.30;;;7.70;89.20;;;;;;4888227;29;20466;-86
2021/03/03 00:55:08;;;;;;;16.73;11.20;;;7.60;89.30;;;;;;4878607;29;20566;-88
2021/03/03 00:57:34;;;;;;;14.82;10.75;;;7.60;89.20;;;;;;4877121;29;20433;-87
2021/03/03 01:00:03;;;;;;;17.27;10.83;;;8.10;89.60;;;;;;4879062;29;20209;-88
2021/03/03 01:02:29;;;;;;;11.70;9.23;;;7.80;85.90;;;;;;4878202;29;20181;-88
2021/03/03 01:04:55;;;;;;;16.30;11.80;;;7.80;90.10;;;;;;4886081;29;20208;-88
2021/03/03 01:07:25;;;;;;;16.75;11.55;;;8.30;89.40;;;;;;4884442;29;20213;-88
2021/03/03 01:09:52;;;;;;;10.77;9.68;;;7.80;83.50;;;;;;4884285;29;20182;-89
2021/03/03 01:12:18;;;;;;;16.17;11.43;;;7.80;83.60;;;;;;4902062;29;20189;-89
2021/03/03 01:14:44;;;;;;;14.97;10.03;;;7.80;87.00;;;;;;4881981;29;20202;-87
2021/03/03 01:17:11;;;;;;;12.90;10.80;;;7.80;87.50;;;;;;4884895;29;20449;-87
2021/03/03 01:19:37;;;;;;;16.33;11.40;;;7.80;84.50;;;;;;4876705;29;20433;-87
2021/03/03 01:22:03;;;;;;;14.03;11.13;;;7.80;88.00;;;;;;4896110;29;20178;-88
2021/03/03 01:24:29;;;;;;;13.50;9.97;;;7.80;88.40;;;;;;4876868;29;20209;-87
2021/03/03 01:26:55;;;;;;;16.30;11.05;;;7.80;88.60;;;;;;4863621;29;20178;-87
2021/03/03 01:29:30;;;;;;;11.57;10.40;;;7.80;90.20;;;;;;4878412;29;20264;-88
2021/03/03 01:31:56;;;;;;;17.23;12.67;;;7.60;90.60;;;;;;4877802;29;20175;-87
2021/03/03 01:34:22;;;;;;;14.37;11.97;;;7.60;91.10;;;;;;4878942;29;20414;-87
2021/03/03 01:36:47;;;;;;;21.30;10.73;;;7.40;92.30;;;;;;4878115;29;20425;-88
2021/03/03 01:39:16;;;;;;;16.90;11.83;;;7.50;91.80;;;;;;4879438;29;20422;-88
2021/03/03 01:41:41;;;;;;;15.25;12.30;;;7.40;91.70;;;;;;4876484;29;20433;-88
2021/03/03 01:44:08;;;;;;;15.40;11.30;;;7.30;92.30;;;;;;4877387;29;20216;-88
2021/03/03 01:46:35;;;;;;;16.50;11.70;;;;;;;;;;4876149;29;20956;-87
2021/03/03 01:49:04;;;;;;;14.15;11.73;;;7.20;91.70;;;;;;4877222;29;20177;-88
2021/03/03 01:51:33;;;;;;;20.08;11.73;;;7.30;89.00;;;;;;4894314;29;20245;-88
2021/03/03 01:54:01;;;;;;;16.20;11.80;;;7.00;89.80;;;;;;4879375;29;20637;-88
2021/03/03 01:56:30;;;;;;;18.35;11.23;;;7.20;90.20;;;;;;4883112;29;20222;-88
2021/03/03 01:58:56;;;;;;;14.70;11.65;;;7.20;90.40;;;;;;4884270;29;20177;-88
2021/03/03 02:01:22;;;;;;;19.83;11.90;;;7.10;87.70;;;;;;4884317;29;20197;-88
2021/03/03 02:03:49;;;;;;;14.60;11.27;;;6.90;89.60;;;;;;4884432;29;20197;-88
2021/03/03 02:06:44;;;;;;;16.52;11.93;;;6.90;90.10;;;;;;4884888;29;20504;-88
2021/03/03 02:09:43;;;;;;;18.40;12.55;;;7.30;88.50;;;;;;4883905;29;20193;-88
2021/03/03 02:12:27;;;;;;;18.35;12.63;;;6.70;88.10;;;;;;4875972;29;20181;-87
2021/03/03 02:15:02;;;;;;;17.75;11.40;;;7.00;89.30;;;;;;4876524;29;20248;-86
2021/03/03 02:17:31;;;;;;;18.85;12.35;;;6.60;89.90;;;;;;4878724;29;20200;-87
2021/03/03 02:20:03;;;;;;;14.70;12.68;;;6.50;89.50;;;;;;4880126;29;20265;-88
2021/03/03 02:23:11;;;;;;;16.48;12.32;;;6.50;89.80;;;;;;4879641;29;20182;-88
2021/03/03 02:25:39;;;;;;;24.10;11.52;;;6.50;90.20;;;;;;4880114;29;20237;-88
2021/03/03 02:28:09;;;;;;;15.85;11.60;;;6.40;92.20;;;;;;4883906;29;20181;-87
2021/03/03 02:30:41;;;;;;;20.00;11.70;;;6.40;91.40;;;;;;4883133;29;20177;-88
2021/03/03 02:33:10;;;;;;;20.10;13.07;;;6.20;93.80;;;;;;4898709;29;20169;-88
2021/03/03 02:35:40;;;;;;;15.48;12.63;;;6.30;94.40;;;;;;4900523;29;20168;-87
2021/03/03 02:38:09;;;;;;;16.65;12.02;;;6.30;95.60;;;;;;4885802;29;20272;-88
2021/03/03 02:40:46;;;;;;;16.67;11.00;;;6.30;94.40;;;;;;4901958;29;20169;-88
2021/03/03 02:43:19;;;;;;;19.08;12.43;;;6.30;90.10;;;;;;4885668;29;20169;-87
2021/03/03 02:45:48;;;;;;;17.60;12.18;;;6.20;93.30;;;;;;4901586;29;20193;-86
2021/03/03 02:48:17;;;;;;;17.30;12.32;;;6.10;96.20;;;;;;4884296;29;20166;-87
2021/03/03 02:50:46;;;;;;;19.25;11.43;;;6.10;95.00;;;;;;4884424;29;20196;-87
2021/03/03 02:53:12;;;;;;;16.35;12.35;;;6.10;96.60;;;;;;4897291;29;20176;-88
2021/03/03 02:55:38;;;;;;;18.13;12.10;;;6.10;96.50;;;;;;4879693;29;20193;-87
2021/03/03 02:58:05;;;;;;;20.17;11.43;;;6.10;96.80;;;;;;4878424;29;20528;-87
2021/03/03 03:00:41;;;;;;;16.75;12.00;;;6.10;97.00;;;;;;4894783;29;20418;-87
2021/03/03 03:03:16;;;;;;;20.73;12.43;;;6.00;97.30;;;;;;4878472;29;20173;-86
2021/03/03 03:05:48;;;;;;;22.55;12.65;;;5.90;97.70;;;;;;4894465;29;20209;-87
2021/03/03 03:08:18;;;;;;;19.13;12.27;;;5.90;97.60;;;;;;4878152;29;20253;-88
2021/03/03 03:10:45;;;;;;;18.92;13.43;;;6.00;96.40;;;;;;4895549;29;20185;-88
2021/03/03 03:13:14;;;;;;;19.38;12.32;;;6.00;97.60;;;;;;4877304;29;20221;-88
2021/03/03 03:15:45;;;;;;;22.58;12.15;;;6.00;98.50;;;;;;4891993;29;20193;-88
2021/03/03 03:18:18;;;;;;;15.75;11.45;;;6.30;98.30;;;;;;4878199;29;20181;-88
2021/03/03 03:20:45;;;;;;;17.95;11.45;;;6.00;99.20;;;;;;4897680;29;20166;-88
2021/03/03 03:23:13;;;;;;;21.80;12.95;;;5.90;99.50;;;;;;4896942;29;20178;-88
2021/03/03 03:25:41;;;;;;;20.35;11.95;;;5.80;99.40;;;;;;4878641;29;20227;-87
2021/03/03 03:28:09;;;;;;;20.52;12.55;;;5.70;99.80;;;;;;4879659;29;20206;-88
2021/03/03 03:30:36;;;;;;;20.88;12.95;;;;;;;;;;4880485;29;20178;-87
2021/03/03 03:33:06;;;;;;;22.52;13.75;;;5.80;90.00;;;;;;4880388;29;20230;-88
2021/03/03 03:35:33;;;;;;;18.13;13.30;;;5.70;81.00;;;;;;4882064;29;20178;-88
2021/03/03 03:38:00;;;;;;;21.35;12.95;;;5.70;78.60;;;;;;4896355;29;20412;-88
2021/03/03 03:40:27;;;;;;;21.65;12.70;;;5.70;82.80;;;;;;4899180;29;20214;-88
2021/03/03 03:42:58;;;;;;;19.08;12.40;;;5.80;77.70;;;;;;4899143;29;20176;-88
2021/03/03 03:45:31;;;;;;;15.27;12.18;;;5.80;80.10;;;;;;4897779;29;20211;-87
2021/03/03 03:47:59;;;;;;;18.17;12.52;;;5.90;80.50;;;;;;4882399;29;20186;-87
2021/03/03 03:50:26;;;;;;;20.92;13.55;;;5.70;80.20;;;;;;4897537;29;20178;-87
2021/03/03 03:52:53;;;;;;;18.58;12.77;;;6.00;80.50;;;;;;4898203;29;20245;-88
2021/03/03 03:55:21;;;;;;;20.20;13.10;;;5.70;80.10;;;;;;4879704;29;20201;-88
2021/03/03 03:57:51;;;;;;;17.35;12.20;;;6.80;80.20;;;;;;4879591;29;20181;-88
2021/03/03 04:00:20;;;;;;;22.67;13.30;;;6.80;78.40;;;;;;4879829;29;20189;-87
2021/03/03 04:02:49;;;;;;;16.73;12.30;;;5.70;80.00;;;;;;4879723;29;20181;-88
2021/03/03 04:05:17;;;;;;;15.73;11.13;;;5.60;79.70;;;;;;4880818;29;20233;-87
2021/03/03 04:07:48;;;;;;;21.48;12.50;;;5.60;79.90;;;;;;4879509;29;20221;-87
2021/03/03 04:10:27;;;;;;;28.83;15.50;;;7.50;82.90;;;;;;4880815;29;20746;-87
2021/03/03 04:12:53;;;;;;;31.65;20.58;;;5.90;76.90;;;;;;4880360;29;20606;-87
2021/03/03 04:15:23;;;;;;;21.67;12.70;;;5.50;79.20;;;;;;4880068;29;20225;-86
2021/03/03 04:17:50;;;;;;;15.85;12.35;;;5.70;79.40;;;;;;4896648;29;20201;-86
2021/03/03 04:20:19;;;;;;;21.77;12.68;;;5.50;75.80;;;;;;4879687;29;20177;-87
2021/03/03 04:22:44;;;;;;;18.38;13.30;;;5.80;79.90;;;;;;4895974;29;20177;-87
2021/03/03 04:25:16;;;;;;;18.73;13.47;;;5.60;78.20;;;;;;4878914;29;20240;-87
2021/03/03 04:27:44;;;;;;;22.17;12.75;;;5.10;77.80;;;;;;4896620;29;20413;-87
2021/03/03 04:30:13;;;;;;;18.60;12.55;;;5.70;78.50;;;;;;4879424;29;20286;-86
2021/03/03 04:32:39;;;;;;;15.07;11.75;;;5.80;78.60;;;;;;4882140;29;20181;-87
2021/03/03 04:35:06;;;;;;;18.27;12.63;;;5.80;78.30;;;;;;4879590;29;20177;-86
2021/03/03 04:37:35;;;;;;;21.65;13.25;;;5.70;78.00;;;;;;4879079;29;20657;-88
2021/03/03 04:40:03;;;;;;;19.95;12.75;;;5.90;75.90;;;;;;4879876;29;20185;-88
2021/03/03 04:42:30;;;;;;;23.75;13.23;;;8.50;79.90;;;;;;4883516;29;20182;-86
2021/03/03 04:44:57;;;;;;;24.02;12.32;;;5.90;75.70;;;;;;4879661;29;20220;-87
2021/03/03 04:47:23;;;;;;;26.02;14.27;;;5.80;79.30;;;;;;4879965;29;20177;-87
2021/03/03 04:49:49;;;;;;;22.70;13.20;;;5.60;79.00;;;;;;4896114;29;20204;-87
2021/03/03 04:52:15;;;;;;;21.73;13.23;;;3.90;77.00;;;;;;4877549;29;20209;-87
2021/03/03 04:54:42;;;;;;;20.33;13.13;;;5.70;79.00;;;;;;4877180;29;20408;-88
2021/03/03 04:57:13;;;;;;;18.90;11.75;;;8.00;84.30;;;;;;4894618;29;20189;-88
2021/03/03 04:59:41;;;;;;;17.83;14.05;;;6.20;77.30;;;;;;4878589;29;20247;-88
2021/03/03 05:02:07;;;;;;;18.95;11.38;;;5.60;80.10;;;;;;4880954;29;20181;-87
2021/03/03 05:04:35;;;;;;;17.83;12.70;;;5.70;79.50;;;;;;4896296;29;20212;-87
2021/03/03 05:07:01;;;;;;;20.08;13.00;;;5.60;75.50;;;;;;4878857;29;20457;-86
2021/03/03 05:09:32;;;;;;;20.97;13.77;;;6.10;81.00;;;;;;4880986;29;20205;-88
2021/03/03 05:11:58;;;;;;;19.27;13.52;;;5.40;80.10;;;;;;4881316;29;20181;-85
2021/03/03 05:14:27;;;;;;;19.38;12.93;;;5.20;79.10;;;;;;4896932;29;20178;-86
2021/03/03 05:16:56;;;;;;;17.95;12.70;;;4.90;80.70;;;;;;4898375;29;20233;-88
2021/03/03 05:19:22;;;;;;;16.25;11.55;;;8.60;81.00;;;;;;4879323;29;20657;-87
2021/03/03 05:21:51;;;;;;;22.50;13.25;;;4.30;81.00;;;;;;4880440;29;20173;-88
2021/03/03 05:24:17;;;;;;;18.23;13.63;;;5.60;80.00;;;;;;4882098;29;20218;-88
2021/03/03 05:26:44;;;;;;;23.17;13.10;;;5.00;79.60;;;;;;4896920;29;20177;-88
2021/03/03 05:29:10;;;;;;;18.33;11.82;;;5.60;80.70;;;;;;4898496;29;20169;-83
2021/03/03 05:31:36;;;;;;;21.83;12.93;;;5.60;79.80;;;;;;4882913;29;20197;-88
2021/03/03 05:34:11;;;;;;;24.00;12.93;;;5.60;79.60;;;;;;4880551;29;20420;-88
2021/03/03 05:36:37;;;;;;;29.77;14.00;;;5.50;79.50;;;;;;4880923;29;20421;-89
2021/03/03 05:39:08;;;;;;;23.53;12.63;;;5.60;79.20;;;;;;4894859;29;20193;-89
2021/03/03 05:41:39;;;;;;;19.13;12.80;;;4.40;74.10;;;;;;4898222;29;20182;-88
2021/03/03 05:44:09;;;;;;;21.73;12.65;;;5.50;78.60;;;;;;4880744;29;20189;-87
2021/03/03 05:46:40;;;;;;;16.15;13.27;;;5.60;78.90;;;;;;4881772;29;20193;-88
2021/03/03 05:49:15;;;;;;;20.85;13.50;;;5.80;78.80;;;;;;4896634;29;20189;-87
2021/03/03 05:51:44;;;;;;;19.90;13.13;;;5.80;78.30;;;;;;4881278;29;20232;-86
2021/03/03 05:54:23;;;;;;;16.92;12.50;;;5.70;78.20;;;;;;4879860;29;20198;-88
2021/03/03 05:56:49;;;;;;;19.02;12.10;;;5.80;78.30;;;;;;4879137;29;20244;-87
2021/03/03 05:59:22;;;;;;;23.00;14.00;;;5.80;78.30;;;;;;4879060;29;20245;-87
2021/03/03 06:02:02;;;;;;;18.52;13.30;;;5.70;78.40;;;;;;4880934;29;20188;-87
2021/03/03 06:04:50;;;;;;;22.13;13.15;;;5.40;79.20;;;;;;4895358;29;20205;-87
2021/03/03 06:07:18;;;;;;;20.75;12.73;;;8.20;79.20;;;;;;4877899;29;20221;-87
2021/03/03 06:09:45;;;;;;;19.50;13.07;;;5.70;80.00;;;;;;4876344;29;20186;-87
2021/03/03 06:12:15;;;;;;;20.85;14.52;;;6.70;77.50;;;;;;4877709;29;20241;-87
2021/03/03 06:14:43;;;;;;;21.20;15.20;;;7.30;82.10;;;;;;4877095;29;20213;-86
2021/03/03 06:17:10;;;;;;;22.35;12.93;;;5.70;80.10;;;;;;4862023;29;20192;-86
2021/03/03 06:19:40;;;;;;;17.85;12.57;;;1.90;71.10;;;;;;4895094;29;20197;-88
2021/03/03 06:22:24;;;;;;;20.17;13.35;;;5.70;78.90;;;;;;4892515;29;20181;-84
2021/03/03 06:24:54;;;;;;;26.00;14.20;;;5.60;80.20;;;;;;4893288;29;20207;-88
2021/03/03 06:27:33;;;;;;;23.50;13.75;;;5.70;79.30;;;;;;4896052;29;20185;-87
2021/03/03 06:30:09;;;;;;;24.83;12.90;;;5.70;79.50;;;;;;4878698;29;20253;-87
2021/03/03 06:33:05;;;;;;;19.88;13.23;;;5.70;79.80;;;;;;4876853;29;20797;-86
2021/03/03 06:35:39;;;;;;;28.48;14.07;;;5.80;79.90;;;;;;4867531;29;20201;-86
2021/03/03 06:38:11;;;;;;;22.55;13.48;;;5.40;76.10;;;;;;4877191;29;20253;-87
2021/03/03 06:41:01;;;;;;;23.33;17.10;;;5.70;79.90;;;;;;4894266;29;20173;-88
2021/03/03 06:43:34;;;;;;;20.73;13.82;;;5.70;81.30;;;;;;4879965;29;20178;-89
2021/03/03 06:46:30;;;;;;;25.65;14.27;;;5.70;77.40;;;;;;4878128;29;20264;-86
2021/03/03 06:48:59;;;;;;;19.45;14.68;;;7.70;79.10;;;;;;4872888;29;20181;-87
2021/03/03 06:51:35;;;;;;;21.63;13.60;;;5.90;79.10;;;;;;4893895;29;20177;-88
2021/03/03 06:54:05;;;;;;;22.38;13.45;;;5.90;79.10;;;;;;4889667;29;20165;-86
2021/03/03 06:56:43;;;;;;;20.83;13.43;;;5.90;78.90;;;;;;4533271;29;9999982;-87
2021/03/03 06:59:25;;;;;;;18.88;12.63;;;6.60;80.80;;;;;;4868000;29;20191;-87
2021/03/03 07:01:55;;;;;;;18.10;12.82;;;6.80;76.70;;;;;;4865540;29;20201;-86
2021/03/03 07:04:28;;;;;;;20.00;13.17;;;6.10;78.00;;;;;;4865059;29;20240;-87
2021/03/03 07:06:57;;;;;;;16.23;11.98;;;6.50;75.30;;;;;;4866000;29;20473;-86
2021/03/03 07:09:35;;;;;;;20.88;12.50;;;5.90;77.50;;;;;;4877111;29;20173;-88
2021/03/03 07:12:03;;;;;;;21.88;13.90;;;6.20;77.10;;;;;;4870949;29;20177;-88
2021/03/03 07:14:30;;;;;;;16.70;12.60;;;6.50;76.80;;;;;;4874720;29;20240;-86
2021/03/03 07:17:11;;;;;;;17.38;12.10;;;5.20;75.40;;;;;;4873462;29;20193;-88
2021/03/03 07:20:01;;;;;;;17.83;12.18;;;9.90;81.40;;;;;;4892453;29;20181;-87
2021/03/03 07:22:35;;;;;;;18.23;12.83;;;6.90;73.10;;;;;;4873757;29;20181;-87
2021/03/03 07:25:05;;;;;;;23.02;14.65;;;6.80;74.50;;;;;;4892392;29;20494;-86
2021/03/03 07:27:31;;;;;;;17.97;13.00;;;7.00;74.20;;;;;;4876863;29;20596;-88
2021/03/03 07:30:11;;;;;;;20.83;11.87;;;7.10;73.80;;;;;;4877259;29;20422;-89
2021/03/03 07:32:38;;;;;;;19.67;12.50;;;7.20;73.70;;;;;;4896362;29;20433;-87
2021/03/03 07:35:07;;;;;;;17.95;13.55;;;7.30;73.60;;;;;;4902957;29;20180;-86
2021/03/03 07:37:37;;;;;;;21.60;14.25;;;7.40;73.60;;;;;;4916366;29;20179;-88
2021/03/03 07:40:26;;;;;;;21.05;14.05;;;7.50;70.10;;;;;;4919147;29;20177;-87
2021/03/03 07:42:54;;;;;;;15.80;11.93;;;7.70;72.20;;;;;;4913141;29;20213;-87
2021/03/03 07:45:42;;;;;;;19.98;12.93;;;7.70;70.80;;;;;;4918398;29;20188;-88
2021/03/03 07:48:33;;;;;;;24.05;12.93;;;8.10;71.40;;;;;;4899146;29;20188;-88
2021/03/03 07:56:50;;;;;;;17.42;12.45;;;7.80;70.00;;;;;;4976790;23;20755;-84
2021/03/03 07:59:46;;;;;;;15.40;11.40;;;9.50;83.00;;;;;;4890569;29;20185;-87
2021/03/03 08:02:45;;;;;;;17.60;12.70;;;;;;;;;;4874161;29;20446;-86
2021/03/03 08:05:33;;;;;;;20.63;13.33;;;10.50;63.30;;;;;;4863311;29;20476;-84
2021/03/03 08:08:26;;;;;;;18.37;11.00;;;12.20;64.00;;;;;;4881738;29;20425;-85
2021/03/03 08:11:12;;;;;;;17.77;12.43;;;11.50;58.90;;;;;;4900396;29;20421;-86
2021/03/03 08:13:45;;;;;;;19.13;11.73;;;11.50;59.50;;;;;;4878458;29;20475;-86
2021/03/03 08:21:52;;;;;;;19.03;12.20;;;12.00;55.60;;;;;;5162729;23;20491;-86
2021/03/03 08:24:37;;;;;;;23.03;13.87;;;10.20;53.60;;;;;;4922333;29;20455;-87
2021/03/03 08:30:19;;;;;;;19.80;12.77;;;11.90;53.70;;;;;;4985631;23;20827;-89
2021/03/03 08:32:50;;;;;;;24.50;15.23;;;11.90;53.30;;;;;;4921334;29;20407;-87
2021/03/03 08:35:48;;;;;;;17.90;13.10;;;11.70;52.60;;;;;;4580276;29;10000140;-91
2021/03/03 08:41:14;;;;;;;18.37;12.63;;;11.80;51.10;;;;;;5036010;23;20501;-89
2021/03/03 08:46:52;;;;;;;15.80;12.80;;;11.90;52.20;;;;;;4883897;29;20433;-89
2021/03/03 08:49:32;;;;;;;20.93;14.27;;;12.80;56.90;;;;;;4882296;29;20448;-89
2021/03/03 08:54:52;;;;;;;33.97;20.70;;;13.30;53.40;;;;;;5100414;23;20502;-90
2021/03/03 08:57:43;;;;;;;22.00;15.70;;;15.10;53.90;;;;;;4916170;29;20427;-85
2021/03/03 09:00:31;;;;;;;24.90;14.30;;;13.60;53.80;;;;;;4913417;29;20424;-83
2021/03/03 09:02:57;;;;;;;19.20;14.53;;;13.70;54.00;;;;;;4906592;29;20428;-87
2021/03/03 09:05:22;;;;;;;23.33;14.47;;;13.70;53.30;;;;;;4909873;29;20486;-88
2021/03/03 09:07:59;;;;;;;23.07;15.70;;;13.70;53.60;;;;;;4925079;29;20172;-86
2021/03/03 09:10:33;;;;;;;20.10;14.73;;;13.90;53.40;;;;;;4909514;29;20543;-87
2021/03/03 09:12:59;;;;;;;24.63;14.37;;;14.00;53.30;;;;;;4898445;29;20436;-88
2021/03/03 09:15:27;;;;;;;25.90;15.67;;;14.10;53.40;;;;;;4909042;29;20424;-89
2021/03/03 09:18:01;;;;;;;18.70;13.97;;;14.00;53.00;;;;;;4926292;29;20424;-87
2021/03/03 09:20:35;;;;;;;22.47;15.20;;;14.20;53.00;;;;;;4929971;29;20460;-88
2021/03/03 09:23:04;;;;;;;21.53;16.77;;;14.50;50.20;;;;;;4917575;29;20420;-87
2021/03/03 09:25:29;;;;;;;21.53;15.60;;;15.50;45.70;;;;;;4912040;29;20483;-88
2021/03/03 09:28:58;;;;;;;22.23;14.83;;;16.20;47.80;;;;;;4560068;29;10000207;-86
2021/03/03 09:31:45;;;;;;;20.60;15.30;;;18.50;41.50;;;;;;4834249;29;20209;-88
2021/03/03 09:34:26;;;;;;;21.67;17.20;;;19.20;38.30;;;;;;4861205;29;20418;-89
2021/03/03 09:37:01;;;;;;;26.43;16.70;;;18.20;39.00;;;;;;4855613;29;20432;-88
2021/03/03 09:39:36;;;;;;;22.43;15.20;;;17.40;36.00;;;;;;4871978;29;20420;-88
2021/03/03 09:45:04;;;;;;;22.40;15.90;;;16.40;35.80;;;;;;4907788;29;20536;-88
2021/03/03 09:48:03;;;;;;;27.70;16.30;;;20.00;37.10;;;;;;4897344;29;20449;-90
2021/03/03 09:50:30;;;;;;;20.50;16.13;;;17.60;33.80;;;;;;4891890;29;20443;-91
2021/03/03 09:53:04;;;;;;;26.00;18.50;;;20.40;36.20;;;;;;4893199;29;20472;-91
2021/03/03 09:58:03;;;;;;;26.03;17.93;;;18.30;32.60;;;;;;4924241;29;20491;-88
2021/03/03 10:00:39;;;;;;;23.97;18.03;;;18.20;36.30;;;;;;4909554;29;20432;-86
2021/03/03 10:03:13;;;;;;;22.63;19.00;;;17.90;34.30;;;;;;4908479;29;20471;-88
2021/03/03 10:06:24;;;;;;;24.67;19.33;;;17.30;33.70;;;;;;4929362;29;20462;-90
2021/03/03 10:08:54;;;;;;;27.87;19.97;;;16.90;35.70;;;;;;4908971;29;20452;-88
2021/03/03 10:11:27;;;;;;;26.03;17.80;;;18.00;37.20;;;;;;4916396;29;20401;-90
2021/03/03 10:14:06;;;;;;;23.77;19.07;;;17.50;36.10;;;;;;4896687;29;20440;-91
2021/03/03 10:16:32;;;;;;;26.27;20.73;;;17.40;35.70;;;;;;4912873;29;20483;-90
2021/03/03 10:19:23;;;;;;;26.70;20.63;;;20.10;38.00;;;;;;4895625;29;20423;-88
2021/03/03 10:22:10;;;;;;;32.83;21.07;;;20.40;36.10;;;;;;4915676;29;20455;-89
2021/03/03 10:24:36;;;;;;;27.73;21.67;;;20.90;34.40;;;;;;4900044;29;20480;-88
2021/03/03 10:27:18;;;;;;;29.53;22.73;;;19.00;35.30;;;;;;4912882;29;20421;-88
2021/03/03 10:30:23;;;;;;;27.27;21.60;;;21.00;33.00;;;;;;4931424;29;20192;-90
2021/03/03 10:32:50;;;;;;;34.67;27.23;;;22.20;32.70;;;;;;4927083;29;20416;-87
2021/03/03 10:35:19;;;;;;;35.80;26.30;;;20.30;34.20;;;;;;4913593;29;20412;-87
2021/03/03 10:37:46;;;;;;;29.60;25.20;;;21.70;34.90;;;;;;4909463;29;20416;-88
2021/03/03 10:48:34;;;;;;;29.40;24.70;;;20.20;31.30;;;;;;5278813;23;20480;-89
2021/03/03 10:51:45;;;;;;;27.23;24.23;;;20.50;36.40;;;;;;4940610;29;20451;-88
2021/03/03 10:57:04;;;;;;;29.77;23.60;;;21.60;32.20;;;;;;5747552;23;20212;-87
2021/03/03 10:59:32;;;;;;;32.07;26.63;;;22.00;34.90;;;;;;4909975;29;20515;-89
2021/03/03 11:02:00;;;;;;;33.03;25.87;;;25.60;35.30;;;;;;4911814;29;20470;-86
2021/03/03 11:04:47;;;;;;;28.90;25.47;;;25.10;33.30;;;;;;4918870;29;20454;-87
2021/03/03 11:07:22;;;;;;;32.70;25.80;;;22.90;29.50;;;;;;4917307;29;20432;-90
2021/03/03 11:12:42;;;;;;;29.97;24.10;;;24.70;31.60;;;;;;5186695;23;21568;-88
2021/03/03 11:15:10;;;;;;;29.30;25.67;;;24.10;31.20;;;;;;4897003;29;20558;-86
2021/03/03 11:17:49;;;;;;;30.40;26.40;;;24.20;29.90;;;;;;4907231;29;20433;-88
2021/03/03 11:23:07;;;;;;;38.93;31.40;;;23.50;29.40;;;;;;4897647;29;20476;-88
2021/03/03 11:25:34;;;;;;;38.70;29.00;;;25.70;32.60;;;;;;4874746;29;20458;-88
2021/03/03 11:28:07;;;;;;;37.43;28.27;;;23.30;31.60;;;;;;4862114;29;20717;-86
2021/03/03 11:33:45;;;;;;;32.57;27.33;;;23.60;29.40;;;;;;5317611;23;20455;-87
2021/03/03 11:36:14;;;;;;;35.50;28.53;;;21.10;29.40;;;;;;5146451;23;20512;-85
2021/03/03 11:39:23;;;;;;;39.70;30.90;;;24.50;30.60;;;;;;5074394;23;20236;-88
2021/03/03 11:41:49;;;;;;;38.30;30.10;;;25.60;29.80;;;;;;4877919;29;20867;-88
2021/03/03 11:44:22;;;;;;;39.00;30.43;;;25.90;31.90;;;;;;4897667;29;20538;-86
2021/03/03 11:47:03;;;;;;;36.40;30.67;;;24.90;32.60;;;;;;4879312;29;20253;-87
2021/03/03 11:49:59;;;;;;;;;;;;;;;;;;;;;
2021/03/03 11:55:44;;;;;;;;;;;;;;;;;;;;;
2021/03/03 11:58:13;;;;;;;45.37;31.40;;;26.10;32.60;;;;;;5051203;23;20495;-88
2021/03/03 12:11:01;;;;;;;34.30;28.33;;;23.00;29.20;;;;;;4936716;29;20482;-88
2021/03/03 12:13:33;;;;;;;33.60;26.53;;;23.20;29.40;;;;;;4936126;29;20451;-87
2021/03/03 12:19:13;;;;;;;33.90;29.50;;;23.10;28.70;;;;;;5096459;23;20488;-86
2021/03/03 12:21:38;;;;;;;45.97;31.93;;;21.40;28.50;;;;;;4901750;29;20425;-89
2021/03/03 12:24:04;;;;;;;39.87;26.70;;;27.10;33.00;;;;;;4897225;29;20704;-90
2021/03/03 12:26:33;;;;;;;35.03;27.30;;;24.00;29.80;;;;;;4897441;29;20176;-88
2021/03/03 12:29:09;;;;;;;38.37;28.37;;;23.20;29.50;;;;;;4914223;29;20553;-90
2021/03/03 12:31:57;;;;;;;35.30;27.13;;;23.20;29.40;;;;;;4866212;29;20464;-90
2021/03/03 12:34:24;;;;;;;36.00;29.70;;;23.40;29.20;;;;;;4911990;29;20421;-82
2021/03/03 12:36:53;;;;;;;38.87;29.47;;;26.20;30.60;;;;;;4912734;29;20425;-89
2021/03/03 12:39:19;;;;;;;38.93;29.27;;;25.80;31.80;;;;;;4893626;29;20433;-89
2021/03/03 12:41:44;;;;;;;35.47;28.43;;;23.90;32.00;;;;;;4893792;29;20444;-89
2021/03/03 12:44:10;;;;;;;39.07;30.40;;;25.50;32.10;;;;;;4894405;29;20260;-93
2021/03/03 12:46:37;;;;;;;30.10;24.47;;;26.00;32.00;;;;;;4897345;29;20216;-90
2021/03/03 12:49:10;;;;;;;35.57;26.67;;;23.40;31.00;;;;;;4892879;29;20181;-91
2021/03/03 12:51:37;;;;;;;106.53;70.50;;;24.90;31.10;;;;;;4891947;29;20439;-90
2021/03/03 12:54:03;;;;;;;35.50;26.00;;;23.30;31.00;;;;;;4909163;29;20413;-89
2021/03/03 12:56:32;;;;;;;34.70;26.10;;;24.10;30.50;;;;;;4897272;29;20514;-85
2021/03/03 12:59:08;;;;;;;32.43;24.40;;;23.70;30.30;;;;;;4915195;29;20464;-90
2021/03/03 13:01:35;;;;;;;34.63;24.27;;;24.20;29.10;;;;;;4899107;29;20456;-90
2021/03/03 13:04:12;;;;;;;32.13;25.80;;;24.90;29.10;;;;;;4895036;29;20473;-91
2021/03/03 13:06:37;;;;;;;34.27;26.80;;;23.70;30.10;;;;;;4899517;29;20447;-88
2021/03/03 13:09:04;;;;;;;34.73;27.13;;;22.70;32.50;;;;;;4921105;23;21686;-90
2021/03/03 13:15:13;;;;;;;38.43;25.00;;;25.40;30.40;;;;;;4860638;29;20430;-93
2021/03/03 13:25:32;;;;;;;28.50;23.30;;;23.20;29.00;;;;;;5157577;23;20500;-89
2021/03/03 13:28:03;;;;;;;36.50;26.00;;;23.20;29.50;;;;;;4900895;29;20448;-88
2021/03/03 13:30:54;;;;;;;29.47;24.93;;;23.60;31.40;;;;;;4901026;29;20504;-91
2021/03/03 13:33:53;;;;;;;28.67;24.80;;;22.30;29.30;;;;;;4900355;29;20413;-90
2021/03/03 13:36:20;;;;;;;30.40;22.13;;;24.60;30.00;;;;;;4901732;29;20425;-88
2021/03/03 13:38:46;;;;;;;29.83;25.63;;;21.60;28.80;;;;;;4944145;23;20478;-87
2021/03/03 13:47:02;;;;;;;32.43;24.23;;;22.20;29.10;;;;;;4828311;27;20484;-87
2021/03/03 13:49:30;;;;;;;38.23;25.73;;;22.50;30.30;;;;;;4978060;23;21479;-88
2021/03/03 13:51:56;;;;;;;32.30;28.00;;;24.50;33.10;;;;;;5035543;23;20571;-90
2021/03/03 13:54:52;;;;;;;37.57;27.70;;;22.90;33.60;;;;;;4899047;29;20433;-91
2021/03/03 13:57:18;;;;;;;35.33;26.97;;;22.00;29.90;;;;;;4917310;29;20421;-90
2021/03/03 13:59:43;;;;;;;34.50;24.67;;;25.90;35.30;;;;;;4899957;29;20445;-90
2021/03/03 14:02:09;;;;;;;35.43;27.57;;;22.20;31.90;;;;;;4899151;29;20441;-89
2021/03/03 14:04:47;;;;;;;40.40;27.57;;;21.70;31.80;;;;;;4899101;29;20240;-89
2021/03/03 14:07:13;;;;;;;38.63;28.60;;;23.50;31.40;;;;;;4894462;29;20439;-88
2021/03/03 14:09:45;;;;;;;64.57;28.50;;;21.50;33.60;;;;;;4895881;29;20401;-90
2021/03/03 14:14:50;;;;;;;42.77;28.93;;;21.30;30.40;;;;;;5095405;23;20488;-89
2021/03/03 14:17:19;;;;;;;38.10;28.57;;;19.80;32.80;;;;;;5034935;23;21450;-90
2021/03/03 14:20:01;;;;;;;37.90;28.53;;;23.00;33.60;;;;;;4878292;29;20431;-92
2021/03/03 14:22:26;;;;;;;39.37;30.50;;;23.50;33.00;;;;;;4931520;23;20513;-87
2021/03/03 14:28:05;;;;;;;44.43;35.93;;;23.30;33.20;;;;;;5108560;23;20231;-90
2021/03/03 14:30:43;;;;;;;41.10;29.97;;;21.30;32.50;;;;;;4906181;29;20435;-89